Weather at Farway Common Airfield

Public forecast

Using degrees Celsius for public forecast. Weather courtesy of forecast.io.

Closest aviation weather report (METAR) to Farway Common Airfield

Closest report is Exeter International Airport, 8.9 nm (16.5 km) W. Retrieved 2021/06/12 11:20 UTC (12 minutes ago):

EGTE 121120Z 31008KT 260V360 9999 FEW020 21/13 Q1025

Closest aviation forecast (TAF) to Farway Common Airfield

Forecast is more than 12 hours old.

Closest forecast is Exeter International Airport, 8.9 nm (16.5 km) W. Retrieved 2012/04/19 12:15 UTC (9 years ago):

TAF TAF EGTE 191401Z 1912/1924 31016KT 9999 SCT030 SCT035 PROB40 TEMPO 1915/1918 7000 SHRA BKN014